Time;durP1;ratioP1;P1;durP2;ratioP2;P2;SDS_P1;SDS_P2;PMS_P1;PMS_P2;Temp;Humidity;BMP_temperature;BMP_pressure;BME280_temperature;BME280_humidity;BME280_pressure;Samples;Min_cycle;Max_cycle;Signal;HPM_P1;HPM_P2
2022/05/08 00:00:58;;;;;;;9.23;4.45;;;;;;;12.84;72.12;102537.94;6193429;23;20344;-84
2022/05/08 00:03:24;;;;;;;9.00;5.32;;;;;;;12.80;72.57;102531.94;6191718;23;20033;-84
2022/05/08 00:05:49;;;;;;;7.35;4.95;;;;;;;12.77;71.92;102537.44;6190678;23;19997;-83
2022/05/08 00:08:14;;;;;;;8.50;5.00;;;;;;;12.73;72.17;102528.75;6189209;23;20382;-83
2022/05/08 00:10:42;;;;;;;9.52;5.25;;;;;;;12.70;72.60;102531.59;6189014;23;20036;-84
2022/05/08 00:13:09;;;;;;;8.77;4.85;;;;;;;12.67;72.40;102528.28;6190905;23;20334;-83
2022/05/08 00:15:35;;;;;;;11.60;5.38;;;;;;;12.65;74.03;102531.03;6193296;23;19997;-83
2022/05/08 00:18:00;;;;;;;11.60;5.50;;;;;;;12.64;72.77;102526.66;6192339;23;20008;-83
2022/05/08 00:20:26;;;;;;;10.27;5.28;;;;;;;12.62;73.61;102520.53;6191314;23;20347;-84
2022/05/08 00:22:51;;;;;;;9.05;5.72;;;;;;;12.62;72.68;102525.00;6190920;23;20005;-84
2022/05/08 00:25:16;;;;;;;9.13;5.20;;;;;;;12.61;73.42;102529.50;6191052;23;19997;-85
2022/05/08 00:27:41;;;;;;;12.52;5.50;;;;;;;12.58;72.83;102529.66;6191042;23;20012;-83
2022/05/08 00:30:07;;;;;;;10.32;5.35;;;;;;;12.56;73.00;102532.44;6190108;23;20005;-84
2022/05/08 00:32:33;;;;;;;12.85;5.80;;;;;;;12.52;73.41;102520.25;6190274;23;20430;-83
2022/05/08 00:34:58;;;;;;;10.15;5.95;;;;;;;12.50;73.55;102523.94;6191577;23;20028;-84
2022/05/08 00:37:23;;;;;;;10.60;5.75;;;;;;;12.45;73.59;102524.19;6192981;23;20047;-84
2022/05/08 00:39:49;;;;;;;14.15;6.22;;;;;;;12.40;74.00;102516.44;6192292;23;20012;-83
2022/05/08 00:42:14;;;;;;;10.43;5.72;;;;;;;12.38;73.53;102518.34;6193879;23;20009;-83
2022/05/08 00:44:39;;;;;;;14.35;6.38;;;;;;;12.39;73.55;102516.56;6193679;23;20005;-83
2022/05/08 00:47:05;;;;;;;12.93;6.15;;;;;;;12.38;74.08;102528.16;6192873;23;20075;-83
2022/05/08 00:49:31;;;;;;;10.45;6.70;;;;;;;12.38;74.46;102522.84;6168532;23;20005;-83
2022/05/08 00:51:57;;;;;;;11.02;5.75;;;;;;;12.35;74.55;102534.50;6195446;23;20338;-84
2022/05/08 00:54:22;;;;;;;11.32;6.15;;;;;;;12.37;74.89;102531.75;6195678;23;20044;-83
2022/05/08 00:56:48;;;;;;;10.32;6.00;;;;;;;12.34;74.76;102537.25;6194171;23;20024;-84
2022/05/08 00:59:13;;;;;;;12.05;6.88;;;;;;;12.33;74.87;102540.88;6167879;23;20001;-83
2022/05/08 01:01:38;;;;;;;10.48;5.95;;;;;;;12.29;74.79;102536.66;6193637;23;20028;-83
2022/05/08 01:04:04;;;;;;;11.35;7.38;;;;;;;12.25;74.78;102538.66;6192246;23;20017;-84
2022/05/08 01:06:31;;;;;;;11.57;6.60;;;;;;;12.24;74.86;102544.06;6167560;23;20001;-83
2022/05/08 01:08:57;;;;;;;9.75;6.40;;;;;;;12.19;74.34;102536.31;6193801;23;20009;-84
2022/05/08 01:11:22;;;;;;;13.25;6.80;;;;;;;12.18;74.84;102545.28;6165855;23;20009;-84
2022/05/08 01:13:48;;;;;;;13.45;6.75;;;;;;;12.16;75.32;102540.03;6165070;23;20457;-84
2022/05/08 01:16:17;;;;;;;12.35;6.85;;;;;;;12.15;74.98;102534.78;6192503;23;20001;-84
2022/05/08 01:18:44;;;;;;;11.43;6.75;;;;;;;12.11;75.46;102538.59;6194494;23;20005;-84
2022/05/08 01:21:13;;;;;;;10.45;7.28;;;;;;;12.11;75.79;102542.09;6194856;23;20017;-84
2022/05/08 01:23:38;;;;;;;12.38;6.82;;;;;;;12.14;75.18;102541.06;6194944;23;20005;-84
2022/05/08 01:26:04;;;;;;;10.02;6.65;;;;;;;12.13;74.86;102544.69;6194719;23;20059;-83
2022/05/08 01:28:29;;;;;;;15.23;7.78;;;;;;;12.13;74.85;102542.00;6195432;23;20021;-84
2022/05/08 01:30:55;;;;;;;15.80;7.97;;;;;;;12.09;75.04;102548.44;6170609;23;20036;-84
2022/05/08 01:33:21;;;;;;;12.40;7.78;;;;;;;12.06;74.84;102552.16;6196183;23;20001;-83
2022/05/08 01:35:49;;;;;;;10.98;7.55;;;;;;;12.03;74.85;102547.84;6167449;23;20004;-84
2022/05/08 01:38:16;;;;;;;14.40;8.25;;;;;;;12.00;74.47;102550.66;6193220;23;20120;-84
2022/05/08 01:40:43;;;;;;;14.57;8.50;;;;;;;11.97;74.09;102550.88;6196185;23;20426;-84
2022/05/08 01:43:10;;;;;;;12.13;8.00;;;;;;;11.92;73.98;102552.91;6197601;23;20005;-84
2022/05/08 01:45:36;;;;;;;11.70;8.20;;;;;;;11.88;74.25;102559.31;6201328;23;20005;-84
2022/05/08 01:50:45;;;;;;;13.13;8.13;;;;;;;11.81;74.68;102555.28;6196089;23;20075;-84
2022/05/08 01:53:10;;;;;;;12.95;8.27;;;;;;;11.81;74.96;102564.13;6174245;23;20005;-84
2022/05/08 01:55:36;;;;;;;12.68;8.73;;;;;;;11.79;74.61;102560.69;6176908;23;20013;-84
2022/05/08 01:58:04;;;;;;;14.30;9.10;;;;;;;11.75;75.27;102560.94;6173301;23;19997;-84
2022/05/08 02:00:30;;;;;;;14.55;8.48;;;;;;;11.75;74.68;102571.56;6175079;23;20036;-83
2022/05/08 02:03:01;;;;;;;14.00;8.70;;;;;;;11.74;74.62;102568.06;6199289;23;20005;-84
2022/05/08 02:05:30;;;;;;;14.43;8.35;;;;;;;11.70;75.14;102571.81;6173936;23;20016;-84
2022/05/08 02:07:56;;;;;;;13.35;9.15;;;;;;;11.70;75.20;102569.16;6169344;23;20426;-84
2022/05/08 02:10:22;;;;;;;12.75;8.38;;;;;;;11.68;75.74;102576.38;6168789;23;20096;-84
2022/05/08 02:12:48;;;;;;;12.82;8.77;;;;;;;11.70;75.00;102571.81;6199813;23;20008;-84
2022/05/08 02:15:14;;;;;;;15.98;9.52;;;;;;;11.69;75.04;102567.44;6197600;23;20004;-84
2022/05/08 02:17:40;;;;;;;13.43;8.73;;;;;;;11.69;74.91;102571.91;6199753;23;20013;-84
2022/05/08 02:20:07;;;;;;;15.13;8.98;;;;;;;11.67;75.54;102574.63;6203930;23;20092;-84
2022/05/08 02:22:33;;;;;;;12.38;9.88;;;;;;;11.65;75.63;102572.06;6198238;23;20005;-84
2022/05/08 02:24:59;;;;;;;14.63;9.25;;;;;;;11.63;75.39;102567.78;6173746;23;20009;-85
2022/05/08 02:27:24;;;;;;;18.30;9.90;;;;;;;11.60;75.82;102576.75;6201276;23;20013;-84
2022/05/08 02:29:51;;;;;;;14.70;9.43;;;;;;;11.57;75.46;102576.06;6173510;23;20005;-84
2022/05/08 02:32:17;;;;;;;16.42;9.77;;;;;;;11.54;75.69;102582.44;6197706;23;20013;-84
2022/05/08 02:34:43;;;;;;;14.73;10.38;;;;;;;11.50;75.94;102583.53;6199652;23;20005;-84
2022/05/08 02:37:08;;;;;;;15.75;10.57;;;;;;;11.45;75.92;102574.91;6172574;23;20005;-84
2022/05/08 02:39:34;;;;;;;16.38;9.95;;;;;;;11.43;75.72;102579.47;6200771;23;20005;-84
2022/05/08 02:41:59;;;;;;;13.85;9.77;;;;;;;11.40;75.62;102579.63;6173361;23;20019;-84
2022/05/08 02:44:24;;;;;;;15.20;9.90;;;;;;;11.38;75.79;102585.03;6200768;23;20088;-84
2022/05/08 02:46:50;;;;;;;13.50;9.43;;;;;;;11.36;75.58;102580.72;6177530;23;20024;-85
2022/05/08 02:49:15;;;;;;;15.95;9.90;;;;;;;11.34;75.41;102585.25;6207430;23;20005;-84
2022/05/08 02:51:41;;;;;;;19.55;9.70;;;;;;;11.35;76.32;102587.00;6210585;23;20036;-84
2022/05/08 02:54:06;;;;;;;18.08;9.85;;;;;;;11.33;75.33;102583.56;6210153;23;20020;-84
2022/05/08 02:59:15;;;;;;;15.43;9.85;;;;;;;11.22;75.86;102584.09;6204912;23;20028;-84
2022/05/08 03:01:40;;;;;;;17.05;10.98;;;;;;;11.21;75.90;102587.72;6213821;23;20017;-85
2022/05/08 03:04:06;;;;;;;18.95;10.02;;;;;;;11.20;75.62;102586.84;6188775;23;20000;-84
2022/05/08 03:06:31;;;;;;;17.40;10.20;;;;;;;11.19;76.01;102589.56;6208817;23;20013;-84
2022/05/08 03:08:58;;;;;;;17.10;10.65;;;;;;;11.11;75.96;102582.00;6201545;23;20005;-84
2022/05/08 03:11:26;;;;;;;15.75;10.43;;;;;;;11.09;75.94;102586.50;6172136;23;20028;-84
2022/05/08 03:13:53;;;;;;;15.73;10.15;;;;;;;11.05;75.63;102590.28;6174825;23;20446;-84
2022/05/08 03:16:19;;;;;;;17.85;10.70;;;;;;;11.00;76.18;102587.84;6173032;23;20001;-84
2022/05/08 03:18:47;;;;;;;16.88;10.60;;;;;;;11.00;76.07;102581.69;6173211;23;20110;-84
2022/05/08 03:21:14;;;;;;;15.25;10.73;;;;;;;10.99;75.84;102578.16;6186488;23;20020;-84
2022/05/08 03:23:40;;;;;;;17.33;10.98;;;;;;;11.00;75.47;102584.34;6199692;23;20065;-85
2022/05/08 03:26:07;;;;;;;19.90;10.55;;;;;;;10.97;76.05;102589.81;6198640;23;20011;-84
2022/05/08 03:28:38;;;;;;;14.82;10.18;;;;;;;10.98;75.90;102580.91;6197396;23;20025;-85
2022/05/08 03:31:04;;;;;;;18.08;10.27;;;;;;;10.97;75.71;102584.50;6197308;23;20337;-85
2022/05/08 03:33:31;;;;;;;17.40;10.15;;;;;;;10.99;75.45;102587.91;6193900;23;20008;-85
2022/05/08 03:35:57;;;;;;;19.27;11.23;;;;;;;10.98;75.27;102587.06;6194259;23;20001;-84
2022/05/08 03:38:22;;;;;;;15.43;9.45;;;;;;;10.96;74.79;102585.41;6195792;23;20087;-84
2022/05/08 03:40:50;;;;;;;14.85;8.68;;;;;;;10.95;74.60;102591.69;6195717;23;20000;-84
2022/05/08 03:43:16;;;;;;;15.63;9.02;;;;;;;10.91;73.82;102585.66;6194077;23;20016;-84
2022/05/08 03:45:41;;;;;;;17.17;9.32;;;;;;;10.91;74.00;102586.53;6191505;23;20355;-84
2022/05/08 03:48:07;;;;;;;18.58;8.35;;;;;;;10.88;73.20;102586.66;6197297;23;20008;-84
2022/05/08 03:50:32;;;;;;;16.60;7.70;;;;;;;10.82;71.78;102594.94;6196846;23;20055;-85
2022/05/08 03:52:59;;;;;;;14.60;7.15;;;;;;;10.78;71.47;102588.06;6198877;23;20001;-85
2022/05/08 03:55:24;;;;;;;16.92;7.80;;;;;;;10.76;71.14;102586.41;6199121;23;20430;-85
2022/05/08 03:57:50;;;;;;;15.68;7.07;;;;;;;10.71;70.54;102592.81;6196099;23;20005;-83
2022/05/08 04:00:16;;;;;;;20.75;7.10;;;;;;;10.69;70.73;102591.16;6200224;23;19992;-84
2022/05/08 04:02:42;;;;;;;13.38;6.97;;;;;;;10.66;71.18;102594.84;6191597;23;20013;-84
2022/05/08 04:05:08;;;;;;;15.27;6.50;;;;;;;10.62;70.67;102592.41;6193495;23;20097;-83
2022/05/08 04:07:34;;;;;;;17.80;6.72;;;;;;;10.60;70.32;102592.50;6195855;23;20330;-84
2022/05/08 04:09:59;;;;;;;15.95;6.80;;;;;;;10.59;70.70;102603.19;6197454;23;20009;-84
2022/05/08 04:12:26;;;;;;;18.27;7.32;;;;;;;10.57;70.86;102603.25;6197439;23;19997;-84
2022/05/08 04:14:52;;;;;;;16.80;7.10;;;;;;;10.54;71.16;102603.41;6197791;23;20071;-83
2022/05/08 04:17:17;;;;;;;22.60;7.70;;;;;;;10.51;71.49;102600.91;6199559;23;20009;-84
2022/05/08 04:19:42;;;;;;;21.48;7.43;;;;;;;10.54;71.61;102612.25;6201685;23;20028;-83
2022/05/08 04:24:52;;;;;;;16.92;6.75;;;;;;;10.56;71.43;102609.53;6199296;23;20067;-84
2022/05/08 04:27:18;;;;;;;20.45;7.10;;;;;;;10.54;70.18;102608.72;6203591;23;20024;-84
2022/05/08 04:29:43;;;;;;;17.55;5.60;;;;;;;10.49;70.17;102608.09;6203112;23;20005;-84
2022/05/08 04:32:08;;;;;;;21.65;6.50;;;;;;;10.46;70.33;102608.22;6177590;23;20005;-83
2022/05/08 04:34:33;;;;;;;17.80;6.15;;;;;;;10.40;70.39;102612.03;6201506;23;20001;-84
2022/05/08 04:36:59;;;;;;;23.98;6.05;;;;;;;10.33;70.52;102610.63;6201242;23;20005;-83
2022/05/08 04:39:24;;;;;;;17.88;6.55;;;;;;;10.28;70.55;102605.50;6202725;23;20025;-84
2022/05/08 04:41:49;;;;;;;22.45;5.93;;;;;;;10.27;70.58;102609.06;6203845;23;20032;-84
2022/05/08 04:44:15;;;;;;;23.83;6.43;;;;;;;10.25;70.30;102616.25;6203623;23;20107;-84
2022/05/08 04:46:40;;;;;;;20.65;5.97;;;;;;;10.25;70.94;102620.72;6174044;23;19997;-83
2022/05/08 04:49:05;;;;;;;16.75;5.90;;;;;;;10.21;71.00;102616.47;6173776;23;20012;-84
2022/05/08 04:51:33;;;;;;;23.15;6.57;;;;;;;10.15;70.97;102626.44;6206019;23;20009;-84
2022/05/08 04:53:59;;;;;;;28.50;6.28;;;;;;;10.11;70.93;102624.88;6178399;23;20100;-84
2022/05/08 04:56:24;;;;;;;24.20;6.10;;;;;;;10.10;71.14;102624.94;6204359;23;20028;-84
2022/05/08 04:58:49;;;;;;;24.20;6.20;;;;;;;10.05;71.52;102625.13;6207336;23;20450;-84
2022/05/08 05:01:15;;;;;;;20.20;5.60;;;;;;;10.07;71.62;102636.53;6205370;23;20013;-84
2022/05/08 05:03:41;;;;;;;26.75;6.05;;;;;;;10.07;71.98;102625.94;6204307;23;20051;-84
2022/05/08 05:06:06;;;;;;;22.75;5.68;;;;;;;10.10;71.66;102640.88;6203557;23;20005;-84
2022/05/08 05:08:32;;;;;;;24.58;6.43;;;;;;;10.10;71.66;102643.53;6175366;23;20040;-83
2022/05/08 05:10:57;;;;;;;20.35;6.40;;;;;;;10.10;71.50;102638.22;6178699;23;20028;-84
2022/05/08 05:13:23;;;;;;;22.70;6.18;;;;;;;10.13;71.43;102644.25;6202290;23;20045;-84
2022/05/08 05:15:48;;;;;;;22.13;5.95;;;;;;;10.10;71.71;102643.53;6198718;23;20051;-84
2022/05/08 05:18:13;;;;;;;22.25;5.85;;;;;;;10.10;71.20;102646.19;6197043;23;20023;-83
2022/05/08 05:20:39;;;;;;;21.80;5.70;;;;;;;10.12;71.46;102646.97;6194681;23;20096;-83
2022/05/08 05:23:04;;;;;;;20.90;5.72;;;;;;;10.13;71.63;102654.84;6193053;23;20344;-83
2022/05/08 05:25:30;;;;;;;20.60;5.97;;;;;;;10.15;71.72;102653.00;6193023;23;20032;-83
2022/05/08 05:27:56;;;;;;;25.90;6.55;;;;;;;10.15;71.98;102660.94;6194552;23;20044;-84
2022/05/08 05:30:22;;;;;;;22.08;6.43;;;;;;;10.15;71.69;102653.00;6193777;23;20032;-84
2022/05/08 05:32:47;;;;;;;24.27;6.43;;;;;;;10.18;71.62;102662.63;6195490;23;20005;-84
2022/05/08 05:35:13;;;;;;;20.60;6.03;;;;;;;10.19;71.58;102670.53;6166095;23;20430;-84
2022/05/08 05:37:39;;;;;;;25.58;5.90;;;;;;;10.17;71.20;102669.75;6198600;23;20008;-84
2022/05/08 05:40:06;;;;;;;21.83;5.63;;;;;;;10.18;71.56;102679.41;6194860;23;20023;-83
2022/05/08 05:42:34;;;;;;;28.52;6.10;;;;;;;10.20;71.14;102682.00;6175627;23;20005;-84
2022/05/08 05:44:59;;;;;;;22.30;5.82;;;;;;;10.23;71.21;102686.31;6206300;23;20032;-84
2022/05/08 05:50:09;;;;;;;21.92;5.22;;;;;;;10.28;71.25;102694.94;6206124;23;20073;-84
2022/05/08 05:52:35;;;;;;;24.13;5.90;;;;;;;10.29;70.86;102688.66;6203700;23;20009;-84
2022/05/08 05:55:03;;;;;;;23.77;6.15;;;;;;;10.28;70.12;102700.25;6205682;23;20001;-85
2022/05/08 05:57:28;;;;;;;23.65;6.28;;;;;;;10.28;70.48;102705.56;6209580;23;20035;-84
2022/05/08 05:59:53;;;;;;;20.13;5.65;;;;;;;10.29;70.07;102705.50;6174732;23;20354;-85
2022/05/08 06:02:18;;;;;;;23.63;6.00;;;;;;;10.31;70.50;102700.97;6202679;23;20028;-86
2022/05/08 06:04:44;;;;;;;22.65;5.63;;;;;;;10.38;70.58;102703.38;6197409;23;20630;-86
2022/05/08 06:07:09;;;;;;;25.40;5.80;;;;;;;10.43;70.22;102709.34;6191128;23;20001;-86
2022/05/08 06:09:34;;;;;;;24.13;5.50;;;;;;;10.45;69.31;102705.66;6191877;23;20236;-84
2022/05/08 06:11:59;;;;;;;22.53;5.83;;;;;;;10.46;68.96;102709.16;6191148;23;20251;-85
2022/05/08 06:14:25;;;;;;;23.85;5.20;;;;;;;10.50;69.15;102722.25;6203421;23;20240;-82
2022/05/08 06:16:50;;;;;;;24.08;6.15;;;;;;;10.53;68.24;102721.25;6194084;23;19997;-83
2022/05/08 06:19:15;;;;;;;23.93;5.47;;;;;;;10.52;68.92;102720.41;6187616;23;20011;-83
2022/05/08 06:21:44;;;;;;;19.38;4.88;;;;;;;10.58;68.63;102729.03;6188605;23;20275;-82
2022/05/08 06:24:09;;;;;;;27.40;6.15;;;;;;;10.61;67.07;102720.88;6167015;23;20001;-83
2022/05/08 06:26:34;;;;;;;20.80;5.67;;;;;;;10.64;67.32;102721.63;6190539;23;20009;-84
2022/05/08 06:28:59;;;;;;;24.85;6.10;;;;;;;10.69;67.27;102730.25;6197676;23;20236;-83
2022/05/08 06:31:25;;;;;;;29.27;5.72;;;;;;;10.72;67.35;102726.56;6188235;23;20079;-83
2022/05/08 06:33:51;;;;;;;19.95;5.30;;;;;;;10.76;66.83;102727.28;6189569;23;20012;-83
2022/05/08 06:36:16;;;;;;;22.48;5.10;;;;;;;10.75;66.60;102726.44;6188989;23;19997;-84
2022/05/08 06:38:41;;;;;;;23.00;6.28;;;;;;;10.79;67.07;102728.03;6189128;23;20005;-84
2022/05/08 06:41:08;;;;;;;27.13;5.57;;;;;;;10.83;66.66;102732.25;6190703;23;20023;-83
2022/05/08 06:43:33;;;;;;;23.15;5.45;;;;;;;10.85;65.58;102738.34;6189640;23;20017;-83
2022/05/08 06:46:00;;;;;;;21.98;4.63;;;;;;;10.87;65.40;102739.13;6191670;23;20058;-83
2022/05/08 06:48:27;;;;;;;22.38;4.80;;;;;;;10.90;65.26;102738.13;6192881;23;20020;-82
2022/05/08 06:50:52;;;;;;;22.98;5.18;;;;;;;10.94;65.27;102742.34;6163099;23;20009;-83
2022/05/08 06:53:18;;;;;;;21.90;4.90;;;;;;;10.98;65.17;102741.28;6190134;23;20012;-82
2022/05/08 06:55:45;;;;;;;21.77;5.47;;;;;;;11.00;64.05;102730.56;6162164;23;20016;-82
2022/05/08 06:58:11;;;;;;;23.33;5.28;;;;;;;11.03;64.06;102733.94;6188914;23;20454;-82
2022/05/08 07:03:20;;;;;;;19.30;4.80;;;;;;;11.17;64.05;102735.91;6192334;23;20152;-82
2022/05/08 07:05:47;;;;;;;19.60;4.70;;;;;;;11.21;63.78;102737.50;6193492;23;20005;-82
2022/05/08 07:08:13;;;;;;;20.77;5.00;;;;;;;11.23;62.83;102742.75;6196483;23;20036;-82
2022/05/08 07:10:39;;;;;;;20.80;4.80;;;;;;;11.32;63.58;102738.78;6194226;23;20005;-82
2022/05/08 07:13:04;;;;;;;20.50;4.55;;;;;;;11.38;63.67;102751.78;6193812;23;20020;-82
2022/05/08 07:15:29;;;;;;;21.25;4.85;;;;;;;11.44;62.57;102749.69;6197061;23;20081;-81
2022/05/08 07:17:55;;;;;;;24.50;5.32;;;;;;;11.47;62.16;102749.53;6198908;23;20012;-81
2022/05/08 07:20:20;;;;;;;21.88;5.32;;;;;;;11.55;62.38;102750.94;6199422;23;20025;-82
2022/05/08 07:22:46;;;;;;;16.95;4.22;;;;;;;11.64;61.87;102758.44;6191167;23;20422;-82
2022/05/08 07:25:12;;;;;;;20.45;4.95;;;;;;;11.75;61.03;102757.91;6191758;23;20012;-81
2022/05/08 07:27:39;;;;;;;17.67;4.88;;;;;;;12.07;61.54;102750.94;6192083;23;20005;-81
2022/05/08 07:30:06;;;;;;;16.50;4.70;;;;;;;12.32;60.08;102753.19;6191493;23;20039;-81
2022/05/08 07:32:31;;;;;;;17.88;4.65;;;;;;;12.64;59.05;102758.59;6192963;23;20001;-82
2022/05/08 07:37:43;;;;;;;15.88;4.35;;;;;;;13.35;58.83;102749.28;6193623;23;20096;-81
2022/05/08 07:40:09;;;;;;;16.50;4.38;;;;;;;13.71;58.11;102755.25;6197184;23;20002;-82
2022/05/08 07:42:35;;;;;;;18.45;4.63;;;;;;;14.04;57.96;102760.38;6193298;23;20518;-82
2022/05/08 07:45:00;;;;;;;18.90;5.40;;;;;;;14.41;55.90;102758.09;6194203;23;20004;-81
2022/05/08 07:47:25;;;;;;;19.57;5.03;;;;;;;14.61;54.46;102751.53;6173462;23;20020;-81
2022/05/08 07:49:51;;;;;;;18.58;4.93;;;;;;;14.75;53.25;102758.66;6196651;23;20311;-81
2022/05/08 07:52:16;;;;;;;18.50;4.75;;;;;;;15.00;53.06;102760.63;6196741;23;20005;-80
2022/05/08 07:54:47;;;;;;;17.35;4.55;;;;;;;15.22;52.68;102754.75;6184102;23;20027;-80
2022/05/08 07:57:13;;;;;;;18.88;4.90;;;;;;;15.42;51.33;102761.44;6214649;23;19989;-80
2022/05/08 07:59:38;;;;;;;18.48;4.63;;;;;;;15.54;50.61;102762.44;6213641;23;20028;-80
2022/05/08 08:02:03;;;;;;;26.55;5.22;;;;;;;15.76;51.30;102761.88;6214442;23;19993;-80
2022/05/08 08:04:29;;;;;;;14.18;4.63;;;;;;;16.05;52.20;102762.56;6213944;23;20102;-80
2022/05/08 08:06:54;;;;;;;20.30;4.70;;;;;;;16.28;51.09;102762.75;6214163;23;20055;-81
2022/05/08 08:09:21;;;;;;;17.50;4.35;;;;;;;16.44;48.18;102765.22;6210592;23;20004;-83
2022/05/08 08:11:47;;;;;;;20.48;4.55;;;;;;;16.61;48.54;102769.38;6206246;23;20001;-81
2022/05/08 08:14:13;;;;;;;18.75;4.85;;;;;;;16.71;47.89;102761.53;6211190;23;19997;-81
2022/05/08 08:16:39;;;;;;;22.17;4.72;;;;;;;16.92;47.37;102765.38;6211712;23;20069;-82
2022/05/08 08:19:04;;;;;;;14.38;4.18;;;;;;;17.02;46.47;102762.88;6214719;23;19985;-82
2022/05/08 08:21:30;;;;;;;17.50;4.53;;;;;;;17.22;45.88;102766.78;6208682;23;20005;-82
2022/05/08 08:23:55;;;;;;;16.63;4.20;;;;;;;17.46;46.28;102765.91;6214854;23;20024;-82
2022/05/08 08:26:21;;;;;;;19.42;4.93;;;;;;;17.82;46.35;102766.75;6214879;23;20023;-82
2022/05/08 08:28:46;;;;;;;16.63;4.75;;;;;;;18.07;46.17;102769.28;6214915;23;20012;-82
2022/05/08 08:31:12;;;;;;;18.83;5.03;;;;;;;18.11;44.90;102762.69;6213596;23;19989;-84
2022/05/08 08:33:41;;;;;;;15.00;4.63;;;;;;;18.25;42.54;102764.31;6214610;23;19985;-82
2022/05/08 08:36:07;;;;;;;16.10;4.60;;;;;;;18.44;44.29;102768.22;6214657;23;20067;-81
2022/05/08 08:38:33;;;;;;;19.17;4.30;;;;;;;18.75;45.65;102763.03;6213946;23;19989;-81
2022/05/08 08:41:04;;;;;;;20.30;5.07;;;;;;;18.91;43.40;102768.09;6214479;23;20008;-81
2022/05/08 08:43:31;;;;;;;17.30;4.40;;;;;;;19.16;42.09;102759.69;6213699;23;20001;-82
2022/05/08 08:48:47;;;;;;;19.58;4.85;;;;;;;19.39;40.00;102768.53;6214714;23;20065;-82
2022/05/08 08:51:13;;;;;;;11.70;3.65;;;;;;;19.50;39.86;102762.25;6214361;23;19993;-82
2022/05/08 08:53:38;;;;;;;13.85;4.18;;;;;;;19.48;38.08;102763.38;6214634;23;20074;-82
2022/05/08 08:56:05;;;;;;;17.23;4.13;;;;;;;19.64;39.79;102757.53;6214575;23;20004;-82
2022/05/08 08:58:31;;;;;;;17.52;4.95;;;;;;;19.83;39.82;102760.38;6214528;23;19989;-83
2022/05/08 09:00:56;;;;;;;14.88;4.22;;;;;;;19.98;40.18;102758.22;6205755;23;20017;-85
2022/05/08 09:03:25;;;;;;;15.82;4.22;;;;;;;20.31;38.71;102753.56;6189840;23;20430;-84
2022/05/08 09:05:59;;;;;;;15.48;4.90;;;;;;;20.49;36.58;102762.72;6186607;23;20009;-84
2022/05/08 09:08:29;;;;;;;14.65;3.97;;;;;;;20.61;36.92;102762.63;6186807;23;20040;-84
2022/05/08 09:10:56;;;;;;;16.35;4.72;;;;;;;20.57;36.38;102766.56;6186921;23;20303;-84
2022/05/08 09:13:23;;;;;;;14.98;4.05;;;;;;;20.78;36.73;102767.38;6187535;23;20013;-84
2022/05/08 09:15:49;;;;;;;17.70;4.03;;;;;;;20.98;37.58;102753.94;6187590;23;20080;-84
2022/05/08 09:18:14;;;;;;;14.30;3.97;;;;;;;21.18;36.95;102761.09;6187468;23;20015;-84
2022/05/08 09:20:42;;;;;;;18.40;4.23;;;;;;;21.31;37.06;102765.34;6187565;23;20037;-84
2022/05/08 09:23:11;;;;;;;16.55;4.13;;;;;;;21.55;36.27;102768.53;6187040;23;20764;-84
2022/05/08 09:25:57;;;;;;;15.10;4.30;;;;;;;21.73;36.29;102762.38;6187558;23;20009;-84
2022/05/08 09:28:28;;;;;;;18.58;4.45;;;;;;;21.78;35.51;102757.38;6187833;23;20012;-84
2022/05/08 09:31:03;;;;;;;12.32;4.22;;;;;;;21.86;35.69;102762.91;6187405;23;20001;-84
2022/05/08 09:33:37;;;;;;;15.73;4.43;;;;;;;21.53;34.62;102758.84;6160368;23;20001;-84
2022/05/08 09:36:05;;;;;;;13.23;4.03;;;;;;;22.06;35.00;102746.63;6186990;23;20016;-84
2022/05/08 09:38:50;;;;;;;13.57;3.65;;;;;;;22.38;36.57;102745.41;6187238;23;20008;-84
2022/05/08 09:41:38;;;;;;;13.48;3.58;;;;;;;22.56;35.33;102746.31;6186619;23;20008;-84
2022/05/08 09:44:12;;;;;;;15.35;3.80;;;;;;;22.67;33.88;102746.13;6186860;23;20001;-84
2022/05/08 09:46:38;;;;;;;13.52;3.83;;;;;;;22.73;33.35;102745.53;6186577;23;20040;-84
2022/05/08 09:49:05;;;;;;;15.23;4.13;;;;;;;22.76;32.53;102748.94;6186839;23;20403;-84
2022/05/08 09:51:33;;;;;;;10.98;4.00;;;;;;;22.83;33.01;102750.00;6186916;23;20005;-83
2022/05/08 09:53:59;;;;;;;11.80;3.55;;;;;;;22.98;32.97;102751.22;6186898;23;20076;-83
2022/05/08 09:56:25;;;;;;;14.45;3.60;;;;;;;23.08;31.46;102749.31;6187158;23;20001;-84
2022/05/08 09:58:50;;;;;;;13.50;3.65;;;;;;;23.06;31.10;102745.88;6160802;23;20011;-83
2022/05/08 10:01:16;;;;;;;14.80;3.85;;;;;;;23.20;31.42;102746.34;6187202;23;20005;-84
2022/05/08 10:03:43;;;;;;;13.27;3.60;;;;;;;23.24;31.91;102745.91;6186813;23;20005;-83
2022/05/08 10:06:09;;;;;;;12.20;3.70;;;;;;;23.12;31.43;102743.59;6187544;23;20001;-83
2022/05/08 10:08:38;;;;;;;14.00;3.42;;;;;;;23.62;31.03;102735.72;6188096;23;20036;-83
2022/05/08 10:14:08;;;;;;;16.73;4.30;;;;;;;24.18;31.48;102741.69;6188197;23;19911;-84
2022/05/08 10:16:58;;;;;;;8.85;3.20;;;;;;;24.29;31.68;102734.28;6187523;23;20490;-84
2022/05/08 10:19:27;;;;;;;11.25;3.00;;;;;;;24.25;30.31;102730.19;6160900;23;20016;-84
2022/05/08 10:21:52;;;;;;;10.00;3.05;;;;;;;24.32;30.02;102723.94;6187971;23;20410;-83
2022/05/08 10:24:33;;;;;;;10.73;3.40;;;;;;;24.58;31.67;102717.63;6186943;23;20003;-84
2022/05/08 10:27:08;;;;;;;12.20;3.05;;;;;;;24.73;31.07;102717.81;6187117;23;20697;-82
2022/05/08 10:29:33;;;;;;;14.13;3.42;;;;;;;24.82;29.97;102719.56;6187258;23;20013;-82
2022/05/08 10:31:59;;;;;;;10.63;3.30;;;;;;;24.87;28.66;102725.34;6187560;23;20005;-83
2022/05/08 10:34:34;;;;;;;9.80;3.50;;;;;;;24.87;30.58;102721.78;6186392;23;20052;-83
2022/05/08 10:37:12;;;;;;;12.27;3.53;;;;;;;25.06;31.15;102720.59;6187801;23;20237;-83
2022/05/08 10:39:47;;;;;;;11.98;3.22;;;;;;;24.91;29.61;102723.13;6186689;23;20032;-83
2022/05/08 10:42:24;;;;;;;10.80;3.35;;;;;;;25.10;30.00;102714.66;6187045;23;20001;-83
2022/05/08 10:44:51;;;;;;;11.27;3.38;;;;;;;25.10;28.64;102717.38;6186013;23;20311;-82
2022/05/08 10:47:32;;;;;;;12.57;3.65;;;;;;;25.16;30.46;102701.41;6186176;23;20004;-83
2022/05/08 10:49:58;;;;;;;15.45;3.42;;;;;;;25.13;28.88;102710.78;6186860;23;20315;-82
2022/05/08 10:52:24;;;;;;;11.25;3.83;;;;;;;25.12;26.56;102707.19;6193997;23;20036;-82
2022/05/08 10:55:00;;;;;;;10.60;3.38;;;;;;;25.15;28.46;102699.69;6186563;23;20052;-83
2022/05/08 10:57:29;;;;;;;10.27;3.25;;;;;;;25.15;27.71;102702.41;6187429;23;20088;-81
2022/05/08 10:59:54;;;;;;;10.75;3.15;;;;;;;25.17;27.51;102703.97;6186984;23;20415;-82
2022/05/08 11:02:38;;;;;;;12.23;2.78;;;;;;;25.45;29.24;102699.06;6186583;23;20012;-82
2022/05/08 11:05:04;;;;;;;13.20;3.72;;;;;;;25.47;26.84;102702.44;6187598;23;20076;-83
2022/05/08 11:07:36;;;;;;;12.43;4.05;;;;;;;25.50;28.01;102693.13;6189100;23;20529;-81
2022/05/08 11:10:02;;;;;;;9.45;3.25;;;;;;;25.47;28.08;102701.63;6186572;23;20009;-82
2022/05/08 11:12:28;;;;;;;9.38;3.17;;;;;;;25.67;27.18;102710.25;6184508;23;20023;-82
2022/05/08 11:15:08;;;;;;;10.00;3.20;;;;;;;25.73;28.07;102705.97;6186824;23;20127;-81
2022/05/08 11:17:36;;;;;;;12.23;3.47;;;;;;;25.61;25.98;102697.34;6187100;23;20009;-82
2022/05/08 11:20:02;;;;;;;13.50;3.60;;;;;;;25.53;26.59;102695.50;6187744;23;20025;-81
2022/05/08 11:22:28;;;;;;;8.18;3.20;;;;;;;25.48;27.05;102697.88;6186852;23;20015;-82
2022/05/08 11:25:10;;;;;;;10.75;3.20;;;;;;;25.71;29.04;102695.28;6161441;23;20009;-82
2022/05/08 11:27:36;;;;;;;9.60;3.25;;;;;;;25.63;27.67;102693.44;6161972;23;20319;-82
2022/05/08 11:30:02;;;;;;;10.48;3.25;;;;;;;25.63;26.48;102693.44;6188465;23;20499;-81
2022/05/08 11:38:03;;;;;;;11.63;3.05;;;;;;;25.83;27.33;102680.28;6187576;23;20029;-83
2022/05/08 11:40:29;;;;;;;10.85;3.25;;;;;;;25.57;27.25;102685.94;6187653;23;20048;-83
2022/05/08 11:42:54;;;;;;;8.10;3.00;;;;;;;25.80;27.26;102674.34;6160552;23;20005;-83